Time;durP1;ratioP1;P1;durP2;ratioP2;P2;SDS_P1;SDS_P2;PMS_P1;PMS_P2;Temp;Humidity;BMP_temperature;BMP_pressure;BME280_temperature;BME280_humidity;BME280_pressure;Samples;Min_cycle;Max_cycle;Signal;HPM_P1;HPM_P2
2023/01/10 00:00:22;;;;;;;1.00;0.90;;;;;;;-145.69;100.00;52648.38;5073088;28;20194;-77
2023/01/10 00:02:48;;;;;;;1.10;1.00;;;;;;;-145.69;100.00;52630.53;5072957;28;20582;-77
2023/01/10 00:05:15;;;;;;;1.50;1.20;;;;;;;-145.69;100.00;52656.28;5071409;28;20207;-77
2023/01/10 00:07:42;;;;;;;5.33;1.30;;;;;;;-145.69;100.00;52654.31;5072853;28;20234;-78
2023/01/10 00:10:10;;;;;;;1.43;1.20;;;;;;;-145.69;100.00;52648.38;5072754;28;20195;-77
2023/01/10 00:15:23;;;;;;;1.63;1.50;;;;;;;-145.69;100.00;52658.28;5073083;28;20723;-77
2023/01/10 00:17:49;;;;;;;1.80;1.60;;;;;;;-145.69;100.00;52660.25;5072775;28;20209;-77
2023/01/10 00:20:16;;;;;;;4.10;1.63;;;;;;;-145.69;100.00;52648.38;5072602;28;20191;-77
2023/01/10 00:22:43;;;;;;;2.10;1.80;;;;;;;-145.69;100.00;52656.28;5072846;28;20233;-77
2023/01/10 00:25:12;;;;;;;1.80;1.50;;;;;;;-145.69;100.00;52711.75;5072477;28;20577;-77
2023/01/10 00:27:39;;;;;;;2.97;1.60;;;;;;;-145.69;100.00;52650.34;5073514;28;20195;-77
2023/01/10 00:30:12;;;;;;;3.27;1.70;;;;;;;-145.69;100.00;52662.22;5072850;28;20260;-77
2023/01/10 00:32:41;;;;;;;3.20;1.73;;;;;;;-145.69;100.00;52678.09;5072892;28;20203;-80
2023/01/10 00:35:09;;;;;;;2.27;1.40;;;;;;;-145.69;100.00;52634.50;5072144;28;20199;-77
2023/01/10 00:37:36;;;;;;;1.30;1.13;;;;;;;-145.69;100.00;52624.59;5072413;28;20198;-76
2023/01/10 00:40:04;;;;;;;2.07;1.87;;;;;;;-145.69;100.00;52680.06;5072927;28;20199;-76
2023/01/10 00:45:15;;;;;;;4.63;1.10;;;;;;;-145.69;100.00;52697.88;5052103;28;20198;-76
2023/01/10 00:47:43;;;;;;;1.17;0.90;;;;;;;-145.69;100.00;52654.31;5052694;28;20203;-77
2023/01/10 00:50:11;;;;;;;3.63;2.30;;;;;;;-145.69;100.00;52668.19;5052498;28;20204;-77
2023/01/10 00:52:38;;;;;;;1.30;1.20;;;;;;;-145.69;100.00;52691.94;5052506;28;20669;-77
2023/01/10 00:55:05;;;;;;;3.07;1.47;;;;;;;-145.69;100.00;52646.41;5055845;28;20282;-77
2023/01/10 00:57:31;;;;;;;4.23;1.30;;;;;;;-145.69;100.00;52693.94;5072490;28;20195;-77
2023/01/10 00:59:58;;;;;;;1.87;1.60;;;;;;;-145.69;100.00;52644.41;5072621;28;20199;-77
2023/01/10 01:02:24;;;;;;;2.20;1.80;;;;;;;-145.69;100.00;52674.13;5072492;28;20235;-76
2023/01/10 01:04:52;;;;;;;3.27;1.50;;;;;;;-145.69;100.00;52656.28;5072203;28;20658;-76
2023/01/10 01:07:19;;;;;;;3.23;1.63;;;;;;;-145.69;100.00;52656.28;5072244;28;20213;-77
2023/01/10 01:12:29;;;;;;;1.30;1.20;;;;;;;-145.69;100.00;52658.28;5072524;28;20206;-78
2023/01/10 01:14:57;;;;;;;1.60;1.40;;;;;;;-145.69;100.00;52686.00;5072411;28;20561;-78
2023/01/10 01:17:23;;;;;;;2.27;1.40;;;;;;;-145.69;100.00;52636.50;5072522;28;20209;-77
2023/01/10 01:19:49;;;;;;;1.60;1.43;;;;;;;-145.69;100.00;52656.28;5072573;28;20199;-77
2023/01/10 01:22:17;;;;;;;1.83;1.40;;;;;;;-145.69;100.00;52650.34;5071622;28;20717;-77
2023/01/10 01:24:44;;;;;;;2.83;1.93;;;;;;;-145.69;100.00;52674.13;5072416;28;20229;-77
2023/01/10 01:27:10;;;;;;;1.60;1.50;;;;;;;-145.69;100.00;52646.41;5071849;28;20226;-77
2023/01/10 01:29:37;;;;;;;1.70;1.60;;;;;;;-145.69;100.00;52658.28;5072009;28;20205;-77
2023/01/10 01:32:03;;;;;;;2.03;1.63;;;;;;;-145.69;100.00;52660.25;5072144;28;20281;-77
2023/01/10 01:34:30;;;;;;;2.58;1.90;;;;;;;-145.69;100.00;52678.09;5071042;28;20446;-77
2023/01/10 01:36:57;;;;;;;2.83;1.63;;;;;;;-145.69;100.00;52693.94;5072194;28;20234;-77
2023/01/10 01:39:25;;;;;;;2.03;1.50;;;;;;;-145.69;100.00;52691.94;5072187;28;20227;-77
2023/01/10 01:41:57;;;;;;;1.80;1.60;;;;;;;-145.69;100.00;52656.28;5072160;28;20669;-77
2023/01/10 01:44:29;;;;;;;1.87;1.40;;;;;;;-145.69;100.00;52670.16;5072024;28;20233;-77
2023/01/10 01:47:02;;;;;;;4.80;1.70;;;;;;;-145.69;100.00;52707.78;5072553;28;20245;-77
2023/01/10 01:49:31;;;;;;;1.93;1.40;;;;;;;-145.69;100.00;52660.25;5075788;28;20328;-77
2023/01/10 01:52:01;;;;;;;4.30;1.60;;;;;;;-145.69;100.00;52674.13;5075699;28;20665;-77
2023/01/10 01:54:31;;;;;;;1.30;1.20;;;;;;;-145.69;100.00;52642.44;5075624;28;20561;-76
2023/01/10 01:57:02;;;;;;;2.77;1.60;;;;;;;-145.69;100.00;52652.34;5074641;28;20833;-77
2023/01/10 01:59:31;;;;;;;2.23;1.70;;;;;;;-145.69;100.00;52693.94;5075776;28;20199;-77
2023/01/10 02:02:02;;;;;;;1.40;1.23;;;;;;;-145.69;100.00;52652.34;5075610;28;20568;-77
2023/01/10 02:04:35;;;;;;;3.43;1.50;;;;;;;-145.69;100.00;52634.50;5075104;28;20715;-76
2023/01/10 02:07:02;;;;;;;3.07;1.70;;;;;;;-145.69;100.00;52701.84;5075081;28;20199;-77
2023/01/10 02:09:37;;;;;;;3.20;1.50;;;;;;;-145.69;100.00;52680.06;5075526;28;20201;-77
2023/01/10 02:12:04;;;;;;;3.33;1.73;;;;;;;-145.69;100.00;52656.28;5075385;28;20202;-77
2023/01/10 02:14:31;;;;;;;4.07;1.70;;;;;;;-145.69;100.00;52642.44;5074913;28;20199;-77
2023/01/10 02:16:58;;;;;;;2.03;1.63;;;;;;;-145.69;100.00;52634.50;5075080;28;20198;-77
2023/01/10 02:19:33;;;;;;;2.70;2.17;;;;;;;-145.69;100.00;52674.13;5074863;28;20557;-77
2023/01/10 02:22:43;;;;;;;2.40;1.77;;;;;;;-145.69;100.00;52648.38;5075133;28;20198;-75
2023/01/10 02:25:29;;;;;;;2.97;1.63;;;;;;;-145.69;100.00;52674.13;5054447;28;20198;-76
2023/01/10 02:28:16;;;;;;;4.83;1.90;;;;;;;-145.69;100.00;52668.19;5074899;28;20206;-76
2023/01/10 02:31:16;;;;;;;5.60;1.60;;;;;;;-145.69;100.00;52666.19;5054770;28;20670;-77
2023/01/10 02:33:47;;;;;;;2.67;1.60;;;;;;;-145.69;100.00;52622.63;5051817;28;20199;-77
2023/01/10 02:36:25;;;;;;;2.03;1.27;;;;;;;-145.69;100.00;52670.16;5066545;28;20237;-77
2023/01/10 02:38:58;;;;;;;1.53;1.20;;;;;;;-145.69;100.00;52682.03;5054471;28;20666;-77
2023/01/10 02:41:31;;;;;;;1.80;1.20;;;;;;;-145.69;100.00;52699.88;5054523;28;20203;-77
2023/01/10 02:44:05;;;;;;;2.77;1.20;;;;;;;-145.69;100.00;52678.09;5054275;28;20881;-79
2023/01/10 02:46:33;;;;;;;3.70;1.13;;;;;;;-145.69;100.00;52668.19;5054737;28;20207;-80
2023/01/10 02:49:01;;;;;;;1.23;1.13;;;;;;;-145.69;100.00;52642.44;5054420;28;20684;-77
2023/01/10 02:51:29;;;;;;;1.73;1.10;;;;;;;-145.69;100.00;52676.09;5054079;28;20223;-77
2023/01/10 02:54:00;;;;;;;1.30;1.10;;;;;;;-145.69;100.00;52674.13;5060626;28;20240;-78
2023/01/10 02:56:42;;;;;;;1.53;1.07;;;;;;;-145.69;100.00;52672.13;5074666;28;20202;-78
2023/01/10 02:59:41;;;;;;;1.00;0.90;;;;;;;-145.69;100.00;52672.13;5072924;28;20202;-77
2023/01/10 03:02:16;;;;;;;3.37;0.90;;;;;;;-145.69;100.00;52687.97;5074079;28;20191;-77
2023/01/10 03:04:54;;;;;;;2.37;1.40;;;;;;;-145.69;100.00;52672.13;5074351;28;20592;-77
2023/01/10 03:07:27;;;;;;;1.07;0.97;;;;;;;-145.69;100.00;52693.94;5074050;28;20202;-79
2023/01/10 03:09:59;;;;;;;3.03;1.37;;;;;;;-145.69;100.00;52693.94;5073603;28;20598;-77
2023/01/10 03:12:31;;;;;;;1.37;1.27;;;;;;;-145.69;100.00;52670.16;5073924;28;20577;-77
2023/01/10 03:15:00;;;;;;;2.37;1.30;;;;;;;-145.69;100.00;52703.81;5074048;28;20676;-79
2023/01/10 03:17:30;;;;;;;2.10;1.43;;;;;;;-145.69;100.00;52670.16;5073544;28;20195;-79
2023/01/10 03:20:02;;;;;;;5.17;1.13;;;;;;;-145.69;100.00;52652.34;5073958;28;20206;-80
2023/01/10 03:22:30;;;;;;;2.13;1.70;;;;;;;-145.69;100.00;52658.28;5074126;28;20203;-77
2023/01/10 03:25:00;;;;;;;2.70;1.50;;;;;;;-145.69;100.00;52687.97;5073703;28;20227;-79
2023/01/10 03:27:32;;;;;;;2.47;1.50;;;;;;;-145.69;100.00;52674.13;5073364;28;20274;-77
2023/01/10 03:30:06;;;;;;;6.37;1.60;;;;;;;-145.69;100.00;52676.09;5073510;28;20206;-77
2023/01/10 03:32:33;;;;;;;3.03;1.50;;;;;;;-145.69;100.00;52693.94;5084488;28;20299;-76
2023/01/10 03:35:03;;;;;;;3.93;2.10;;;;;;;-145.69;100.00;52676.09;5093690;28;20198;-77
2023/01/10 03:37:36;;;;;;;3.93;1.33;;;;;;;-145.69;100.00;52709.78;5093617;28;20630;-77
2023/01/10 03:40:08;;;;;;;1.80;1.57;;;;;;;-145.69;100.00;52678.09;5093709;28;20206;-77
2023/01/10 03:45:26;;;;;;;2.30;1.60;;;;;;;-145.69;100.00;52652.34;5093115;28;20194;-77
2023/01/10 03:47:55;;;;;;;7.27;1.50;;;;;;;-145.69;100.00;52693.94;5093874;28;20202;-80
2023/01/10 03:50:26;;;;;;;7.03;1.60;;;;;;;-145.69;100.00;52684.03;5093678;28;20210;-77
2023/01/10 03:52:52;;;;;;;5.97;1.83;;;;;;;-145.69;100.00;52686.00;5093366;28;20206;-77
2023/01/10 03:55:22;;;;;;;3.93;1.20;;;;;;;-145.69;100.00;52674.13;5075268;28;20249;-77
2023/01/10 03:57:48;;;;;;;3.80;1.57;;;;;;;-145.69;100.00;52656.28;5073161;28;20214;-77
2023/01/10 04:00:16;;;;;;;4.47;1.20;;;;;;;-145.69;100.00;52695.91;5073236;28;20209;-77
2023/01/10 04:02:43;;;;;;;3.00;1.40;;;;;;;-145.69;100.00;52656.28;5072744;28;20190;-77
2023/01/10 04:05:10;;;;;;;8.33;1.80;;;;;;;-145.69;100.00;52670.16;5073010;28;20226;-77
2023/01/10 04:07:38;;;;;;;2.13;1.20;;;;;;;-145.69;100.00;52709.78;5072828;28;20210;-77
2023/01/10 04:10:06;;;;;;;3.77;1.57;;;;;;;-145.69;100.00;52672.13;5072766;28;20206;-77
2023/01/10 04:12:32;;;;;;;6.47;1.60;;;;;;;-145.69;100.00;52686.00;5072478;28;20238;-77
2023/01/10 04:15:00;;;;;;;4.90;1.90;;;;;;;-145.69;100.00;52668.19;5073021;28;20203;-77
2023/01/10 04:17:26;;;;;;;6.30;1.87;;;;;;;-145.69;100.00;52650.34;5072694;28;20293;-76
2023/01/10 04:19:53;;;;;;;4.07;2.20;;;;;;;-145.69;100.00;52678.09;5072867;28;20657;-77
2023/01/10 04:22:20;;;;;;;4.53;1.90;;;;;;;-145.69;100.00;52695.91;5073004;28;20195;-76
2023/01/10 04:24:50;;;;;;;3.80;1.93;;;;;;;-145.69;100.00;52693.94;5072283;28;20715;-76
2023/01/10 04:27:16;;;;;;;4.33;2.60;;;;;;;-145.69;100.00;52670.16;5073003;28;20230;-79
2023/01/10 04:29:43;;;;;;;4.30;2.13;;;;;;;-145.69;100.00;52686.00;5072546;28;20680;-75
2023/01/10 04:32:09;;;;;;;2.73;1.67;;;;;;;-145.69;100.00;52691.94;5072772;28;20668;-77
2023/01/10 04:34:36;;;;;;;6.03;1.77;;;;;;;-145.69;100.00;52687.97;5072847;28;20281;-76
2023/01/10 04:37:02;;;;;;;9.10;1.90;;;;;;;-145.69;100.00;52691.94;5072745;28;20736;-76
2023/01/10 04:39:29;;;;;;;7.93;1.80;;;;;;;-145.69;100.00;52666.19;5072629;28;20214;-76
2023/01/10 04:41:57;;;;;;;7.10;2.07;;;;;;;-145.69;100.00;52693.94;5066963;28;20620;-76
2023/01/10 04:44:23;;;;;;;4.57;1.70;;;;;;;-145.69;100.00;52670.16;5052383;28;20243;-77
2023/01/10 04:46:50;;;;;;;7.63;2.33;;;;;;;-145.69;100.00;52658.28;5052769;28;20226;-76
2023/01/10 04:49:16;;;;;;;7.23;2.60;;;;;;;-145.69;100.00;52695.91;5052429;28;20200;-77
2023/01/10 04:51:42;;;;;;;6.20;2.30;;;;;;;-145.69;100.00;52656.28;5052536;28;20302;-77
2023/01/10 04:54:09;;;;;;;8.20;2.40;;;;;;;-145.69;100.00;52678.09;5059421;28;20212;-77
2023/01/10 04:56:35;;;;;;;6.23;2.67;;;;;;;-145.69;100.00;52678.09;5072006;28;20203;-77
2023/01/10 04:59:05;;;;;;;7.83;3.00;;;;;;;-145.69;100.00;52636.50;5072322;28;20210;-77
2023/01/10 05:01:32;;;;;;;10.17;2.80;;;;;;;-145.69;100.00;52654.31;5072632;28;20259;-77
2023/01/10 05:03:59;;;;;;;12.63;3.07;;;;;;;-145.69;100.00;52678.09;5072283;28;20215;-77
2023/01/10 05:06:25;;;;;;;15.03;2.77;;;;;;;-145.69;100.00;52693.94;5071709;28;20588;-80
2023/01/10 05:08:52;;;;;;;6.47;2.80;;;;;;;-145.69;100.00;52682.03;5072349;28;20720;-77
2023/01/10 05:11:18;;;;;;;8.73;2.87;;;;;;;-145.69;100.00;52670.16;5072726;28;20206;-77
2023/01/10 05:13:46;;;;;;;12.70;3.33;;;;;;;-145.69;100.00;52634.50;5072387;28;20206;-78
2023/01/10 05:16:15;;;;;;;10.50;2.87;;;;;;;-145.69;100.00;52680.06;5070706;28;20303;-78
2023/01/10 05:18:41;;;;;;;10.90;3.00;;;;;;;-145.69;100.00;52686.00;5072398;28;20211;-78
2023/01/10 05:21:09;;;;;;;12.97;2.97;;;;;;;-145.69;100.00;52686.00;5072323;28;20198;-78
2023/01/10 05:23:36;;;;;;;14.47;3.20;;;;;;;-145.69;100.00;52697.88;5075226;28;20210;-77
2023/01/10 05:26:06;;;;;;;10.00;2.83;;;;;;;-145.69;100.00;52678.09;5075831;28;20724;-77
2023/01/10 05:28:32;;;;;;;10.70;3.33;;;;;;;-145.69;100.00;52678.09;5075980;28;20209;-76
2023/01/10 05:30:58;;;;;;;11.33;3.70;;;;;;;-145.69;100.00;52680.06;5075997;28;20554;-77
2023/01/10 05:33:26;;;;;;;13.87;3.13;;;;;;;-145.69;100.00;52686.00;5075428;28;20195;-77
2023/01/10 05:35:53;;;;;;;13.07;2.90;;;;;;;-145.69;100.00;52678.09;5076062;28;20604;-78
2023/01/10 05:38:19;;;;;;;14.90;3.20;;;;;;;-145.69;100.00;52646.41;5074862;28;20808;-77
2023/01/10 05:40:45;;;;;;;9.43;2.80;;;;;;;-145.69;100.00;52666.19;5075605;28;20657;-77
2023/01/10 05:43:12;;;;;;;14.27;2.80;;;;;;;-145.69;100.00;52660.25;5075704;28;20231;-77
2023/01/10 05:45:38;;;;;;;13.13;3.00;;;;;;;-145.69;100.00;52695.91;5075444;28;20230;-77
2023/01/10 05:48:05;;;;;;;10.33;2.90;;;;;;;-145.69;100.00;52686.00;5075602;28;20203;-77
2023/01/10 05:50:33;;;;;;;11.70;2.83;;;;;;;-145.69;100.00;52662.22;5075746;28;20211;-76
2023/01/10 05:53:03;;;;;;;16.17;2.40;;;;;;;-145.69;100.00;52666.19;5075307;28;20199;-77
2023/01/10 05:55:29;;;;;;;11.17;2.80;;;;;;;-145.69;100.00;52680.06;5075265;28;20195;-77
2023/01/10 05:57:56;;;;;;;12.50;2.77;;;;;;;-145.69;100.00;52670.16;5075716;28;20535;-77
2023/01/10 06:00:24;;;;;;;8.00;3.00;;;;;;;-145.69;100.00;52674.13;5075435;28;20550;-77
2023/01/10 06:02:50;;;;;;;18.50;3.00;;;;;;;-145.69;100.00;52703.81;5075732;28;20199;-77
2023/01/10 06:05:17;;;;;;;10.07;2.93;;;;;;;-145.69;100.00;52693.94;5075374;28;20581;-79
2023/01/10 06:07:44;;;;;;;12.13;2.77;;;;;;;-145.69;100.00;52682.03;5075281;28;20210;-78
2023/01/10 06:10:11;;;;;;;19.40;3.13;;;;;;;-145.69;100.00;52682.03;5075166;28;20566;-77
2023/01/10 06:12:39;;;;;;;16.63;3.37;;;;;;;-145.69;100.00;52674.13;5075034;28;20210;-79
2023/01/10 06:15:07;;;;;;;20.53;3.43;;;;;;;-145.69;100.00;52674.13;5075156;28;20199;-77
2023/01/10 06:17:33;;;;;;;9.40;2.93;;;;;;;-145.69;100.00;52666.19;5074977;28;20615;-77
2023/01/10 06:20:00;;;;;;;13.10;3.23;;;;;;;-145.69;100.00;52693.94;5074791;28;20206;-77
2023/01/10 06:22:26;;;;;;;20.90;4.27;;;;;;;-145.69;100.00;52662.22;5075182;28;20198;-76
2023/01/10 06:24:55;;;;;;;17.13;3.77;;;;;;;-145.69;100.00;52687.97;5074788;28;20222;-77
2023/01/10 06:27:21;;;;;;;16.23;3.23;;;;;;;-145.69;100.00;52646.41;5075169;28;20199;-77
2023/01/10 06:29:48;;;;;;;13.00;3.63;;;;;;;-145.69;100.00;52705.81;5075051;28;20557;-77
2023/01/10 06:32:14;;;;;;;15.50;4.03;;;;;;;-145.69;100.00;52662.22;5074698;28;20203;-77
2023/01/10 06:34:41;;;;;;;18.03;4.07;;;;;;;-145.69;100.00;52672.13;5075635;28;20195;-77
2023/01/10 06:37:08;;;;;;;14.87;3.60;;;;;;;-145.69;100.00;52672.13;5074983;28;20225;-77
2023/01/10 06:39:34;;;;;;;8.30;2.57;;;;;;;-145.69;100.00;52689.97;5074714;28;20234;-79
2023/01/10 06:42:02;;;;;;;16.50;3.00;;;;;;;-145.69;100.00;52674.13;5071522;28;20194;-79
2023/01/10 06:44:29;;;;;;;11.60;3.10;;;;;;;-145.69;100.00;52674.13;5074253;28;20246;-79
2023/01/10 06:46:55;;;;;;;12.93;3.63;;;;;;;-145.69;100.00;52668.19;5074796;28;20203;-79
2023/01/10 06:49:22;;;;;;;11.17;3.47;;;;;;;-145.69;100.00;52674.13;5074597;28;20212;-79
2023/01/10 06:51:48;;;;;;;15.07;3.30;;;;;;;-145.69;100.00;52676.09;5074647;28;20203;-77
2023/01/10 06:54:16;;;;;;;6.67;2.80;;;;;;;-145.69;100.00;52701.84;5073969;28;20198;-78
2023/01/10 06:56:42;;;;;;;14.30;3.53;;;;;;;-145.69;100.00;52682.03;5074268;28;20563;-80
2023/01/10 06:59:10;;;;;;;9.47;3.13;;;;;;;-145.69;100.00;52674.13;5074599;28;20205;-80
2023/01/10 07:01:37;;;;;;;14.03;2.90;;;;;;;-145.69;100.00;52687.97;5074521;28;20199;-81
2023/01/10 07:04:03;;;;;;;16.80;3.20;;;;;;;-145.69;100.00;52670.16;5074367;28;20203;-80
2023/01/10 07:06:30;;;;;;;9.30;3.27;;;;;;;-145.69;100.00;52686.00;5074383;28;20208;-80
2023/01/10 07:08:56;;;;;;;20.10;3.47;;;;;;;-145.69;100.00;52662.22;5074030;28;20245;-80
2023/01/10 07:11:23;;;;;;;10.53;3.80;;;;;;;-145.69;100.00;52680.06;5074098;28;20558;-79
2023/01/10 07:13:52;;;;;;;13.80;3.73;;;;;;;-145.69;100.00;52662.22;5074073;28;20210;-80
2023/01/10 07:16:20;;;;;;;18.03;4.37;;;;;;;-145.69;100.00;52638.47;5074041;28;20231;-80
2023/01/10 07:18:46;;;;;;;13.37;3.83;;;;;;;-145.69;100.00;52658.28;5073994;28;20202;-79
2023/01/10 07:21:13;;;;;;;24.83;4.37;;;;;;;-145.69;100.00;52695.91;5073617;28;20526;-79
2023/01/10 07:23:40;;;;;;;19.90;3.73;;;;;;;-145.69;100.00;52701.84;5073562;28;20202;-80
2023/01/10 07:26:09;;;;;;;10.90;3.70;;;;;;;-145.69;100.00;52695.91;5073180;28;20222;-80
2023/01/10 07:28:35;;;;;;;18.77;3.37;;;;;;;-145.69;100.00;52650.34;5074021;28;20207;-80
2023/01/10 07:31:04;;;;;;;20.60;3.83;;;;;;;-145.69;100.00;52648.38;5073278;28;20203;-80
2023/01/10 07:33:32;;;;;;;13.37;3.83;;;;;;;-145.69;100.00;52646.41;5073896;28;20198;-80
2023/01/10 07:36:00;;;;;;;16.70;3.87;;;;;;;-145.69;100.00;52662.22;5073358;28;20206;-80
2023/01/10 07:38:27;;;;;;;20.77;3.53;;;;;;;-145.69;100.00;52666.19;5072814;28;20196;-79
2023/01/10 07:40:53;;;;;;;21.87;3.17;;;;;;;-145.69;100.00;52697.88;5073700;28;20203;-80
2023/01/10 07:43:20;;;;;;;13.93;3.40;;;;;;;-145.69;100.00;52670.16;5073308;28;20226;-80
2023/01/10 07:45:46;;;;;;;17.47;3.60;;;;;;;-145.69;100.00;52680.06;5072776;28;20231;-80
2023/01/10 07:48:13;;;;;;;22.87;3.50;;;;;;;-145.69;100.00;52634.50;5073198;28;20229;-80
2023/01/10 07:50:41;;;;;;;14.77;3.50;;;;;;;-145.69;100.00;52686.00;5073149;28;20203;-79
2023/01/10 07:53:07;;;;;;;14.57;3.70;;;;;;;-145.69;100.00;52670.16;5073088;28;20199;-80
2023/01/10 07:55:37;;;;;;;19.17;4.60;;;;;;;-145.69;100.00;52654.31;5072572;28;20236;-80
2023/01/10 07:58:05;;;;;;;9.80;3.37;;;;;;;-145.69;100.00;52674.13;5072929;28;20191;-80
2023/01/10 08:00:32;;;;;;;7.07;2.50;;;;;;;-145.69;100.00;52658.28;5073313;28;20206;-78
2023/01/10 08:02:58;;;;;;;19.90;2.50;;;;;;;-145.69;100.00;52642.44;5073215;28;20234;-80
2023/01/10 08:05:26;;;;;;;15.33;2.30;;;;;;;-145.69;100.00;52666.19;5072972;28;20229;-80
2023/01/10 08:07:55;;;;;;;15.80;2.00;;;;;;;-145.69;100.00;52672.13;5072780;28;20203;-80
2023/01/10 08:10:21;;;;;;;11.97;2.13;;;;;;;-145.69;100.00;52662.22;5073048;28;20225;-80
2023/01/10 08:12:49;;;;;;;6.70;2.27;;;;;;;-145.69;100.00;52678.09;5072945;28;20645;-80
2023/01/10 08:15:16;;;;;;;12.33;3.03;;;;;;;-145.69;100.00;52674.13;5072857;28;20217;-80
2023/01/10 08:17:43;;;;;;;7.53;1.90;;;;;;;-145.69;100.00;52672.13;5072512;28;20199;-80
2023/01/10 08:20:11;;;;;;;10.33;2.43;;;;;;;-145.69;100.00;52678.09;5072735;28;20202;-80
2023/01/10 08:22:37;;;;;;;10.27;2.97;;;;;;;-145.69;100.00;52676.09;5072746;28;20251;-80
2023/01/10 08:25:06;;;;;;;13.40;2.70;;;;;;;-145.69;100.00;52686.00;5072573;28;20226;-80
2023/01/10 08:27:32;;;;;;;6.13;2.80;;;;;;;-145.69;100.00;52686.00;5072453;28;20210;-80
2023/01/10 08:29:58;;;;;;;11.30;2.67;;;;;;;-145.69;100.00;52660.25;5072903;28;20205;-80
2023/01/10 08:32:25;;;;;;;11.30;2.17;;;;;;;-145.69;100.00;52670.16;5072859;28;20199;-80
2023/01/10 08:34:51;;;;;;;12.83;2.50;;;;;;;-145.69;100.00;52672.13;5072777;28;20535;-76
2023/01/10 08:37:18;;;;;;;11.77;2.30;;;;;;;-145.69;100.00;52697.88;5072692;28;20198;-78
2023/01/10 08:39:45;;;;;;;12.23;2.23;;;;;;;-145.69;100.00;52691.94;5072906;28;20195;-78
2023/01/10 08:42:12;;;;;;;14.37;2.50;;;;;;;-145.69;100.00;52670.16;5072535;28;20199;-79
2023/01/10 08:44:39;;;;;;;17.40;2.27;;;;;;;-145.69;100.00;52682.03;5072721;28;20198;-78
2023/01/10 08:47:05;;;;;;;7.07;2.53;;;;;;;-145.69;100.00;52682.03;5072600;28;20202;-78
2023/01/10 08:49:32;;;;;;;18.80;2.83;;;;;;;-145.69;100.00;52674.13;5072850;28;20202;-79
2023/01/10 08:51:58;;;;;;;11.43;2.90;;;;;;;-145.69;100.00;52656.28;5069189;28;20202;-78
2023/01/10 08:54:25;;;;;;;10.13;2.37;;;;;;;-145.69;100.00;52674.13;5072763;28;20282;-78
2023/01/10 08:56:51;;;;;;;8.23;2.63;;;;;;;-145.69;100.00;52676.09;5074402;28;20202;-79
2023/01/10 08:59:19;;;;;;;7.23;2.40;;;;;;;-145.69;100.00;52670.16;5076779;28;20202;-77
2023/01/10 09:01:46;;;;;;;11.60;2.60;;;;;;;-145.69;100.00;52693.94;5076538;28;20204;-77
2023/01/10 09:04:12;;;;;;;13.90;2.40;;;;;;;-145.69;100.00;52662.22;5076519;28;20194;-77
2023/01/10 09:06:39;;;;;;;10.33;2.13;;;;;;;-145.69;100.00;52670.16;5076224;28;20635;-77
2023/01/10 09:09:05;;;;;;;9.13;2.53;;;;;;;-145.69;100.00;52686.00;5076348;28;20203;-76
2023/01/10 09:11:32;;;;;;;11.50;2.43;;;;;;;-145.69;100.00;52666.19;5076060;28;20202;-76
2023/01/10 09:13:58;;;;;;;11.43;2.40;;;;;;;-145.69;100.00;52666.19;5076376;28;20206;-74
2023/01/10 09:16:26;;;;;;;14.70;2.73;;;;;;;-145.69;100.00;52693.94;5076258;28;20225;-77
2023/01/10 09:18:54;;;;;;;8.07;2.00;;;;;;;-145.69;100.00;52674.13;5076458;28;20202;-77
2023/01/10 09:21:21;;;;;;;5.33;1.97;;;;;;;-145.69;100.00;52668.19;5076209;28;20202;-77
2023/01/10 09:23:47;;;;;;;9.60;1.97;;;;;;;-145.69;100.00;52686.00;5075808;28;20674;-75
2023/01/10 09:26:14;;;;;;;9.63;1.80;;;;;;;-145.69;100.00;52695.91;5075525;28;20608;-78
2023/01/10 09:28:40;;;;;;;8.53;1.67;;;;;;;-145.69;100.00;52650.34;5076121;28;20252;-77
2023/01/10 09:31:07;;;;;;;15.37;1.90;;;;;;;-145.69;100.00;52648.38;5075892;28;20209;-76
2023/01/10 09:33:36;;;;;;;7.23;1.60;;;;;;;-145.69;100.00;52630.53;5076153;28;20207;-79
2023/01/10 09:36:02;;;;;;;9.30;1.67;;;;;;;-145.69;100.00;52682.03;5074187;28;20213;-77
2023/01/10 09:38:29;;;;;;;10.50;2.07;;;;;;;-145.69;100.00;52684.03;5075470;28;20570;-75
2023/01/10 09:41:19;;;;;;;8.80;1.73;;;;;;;-145.69;100.00;52614.72;5075495;28;20201;-76
2023/01/10 09:43:54;;;;;;;4.13;1.10;;;;;;;-145.69;100.00;52666.19;5075617;28;20237;-75
2023/01/10 09:46:34;;;;;;;5.17;1.53;;;;;;;-145.69;100.00;52662.22;5075537;28;20222;-76
2023/01/10 09:49:10;;;;;;;6.23;1.40;;;;;;;-145.69;100.00;52652.34;5075490;28;20588;-76
2023/01/10 09:51:39;;;;;;;4.57;1.33;;;;;;;-145.69;100.00;52686.00;5075736;28;20214;-76
2023/01/10 09:54:12;;;;;;;7.87;1.67;;;;;;;-145.69;100.00;52608.75;5075550;28;20203;-74
2023/01/10 09:56:40;;;;;;;8.33;1.50;;;;;;;-145.69;100.00;52652.34;5075150;28;20187;-74
2023/01/10 09:59:14;;;;;;;9.47;1.57;;;;;;;-145.69;100.00;52654.31;5075300;28;20245;-74
2023/01/10 10:01:41;;;;;;;4.73;1.53;;;;;;;-145.69;100.00;52638.47;5075553;28;20194;-74
2023/01/10 10:04:19;;;;;;;10.83;1.57;;;;;;;-145.69;100.00;52626.59;5076271;28;20214;-74
2023/01/10 10:06:48;;;;;;;6.70;1.20;;;;;;;-145.69;100.00;52630.53;5075349;28;20230;-74
2023/01/10 10:09:18;;;;;;;8.97;1.47;;;;;;;-145.69;100.00;52670.16;5072498;28;20202;-74
2023/01/10 10:11:56;;;;;;;11.17;1.40;;;;;;;-145.69;100.00;52668.19;5074868;28;20202;-74
2023/01/10 10:14:38;;;;;;;6.03;1.77;;;;;;;-145.69;100.00;52658.28;5075031;28;20194;-75
2023/01/10 10:17:19;;;;;;;6.40;1.20;;;;;;;-145.69;100.00;52640.44;5075020;28;20212;-77
2023/01/10 10:19:59;;;;;;;4.50;1.20;;;;;;;-145.69;100.00;52634.50;5075282;28;20587;-77
2023/01/10 10:22:38;;;;;;;8.57;1.50;;;;;;;-145.69;100.00;52642.44;5074687;28;20534;-77
2023/01/10 10:25:18;;;;;;;8.63;1.57;;;;;;;-145.69;100.00;52672.13;5057111;28;20199;-78
2023/01/10 10:28:04;;;;;;;4.23;1.30;;;;;;;-145.69;100.00;52658.28;5072955;28;20592;-79
2023/01/10 10:30:42;;;;;;;4.50;1.40;;;;;;;-145.69;100.00;52650.34;5074776;28;20191;-78
2023/01/10 10:33:24;;;;;;;5.27;1.20;;;;;;;-145.69;100.00;52632.53;5074954;28;20202;-78
2023/01/10 10:35:56;;;;;;;3.50;1.10;;;;;;;-145.69;100.00;52652.34;5074880;28;20251;-77
2023/01/10 10:38:29;;;;;;;6.30;1.23;;;;;;;-145.69;100.00;52646.41;5075138;28;20221;-78
2023/01/10 10:40:58;;;;;;;5.93;1.57;;;;;;;-145.69;100.00;52644.41;5074368;28;20645;-78
2023/01/10 10:43:30;;;;;;;5.50;1.47;;;;;;;-145.69;100.00;52652.34;5074450;28;20231;-77
2023/01/10 10:46:01;;;;;;;5.30;1.10;;;;;;;-145.69;100.00;52672.13;5074349;28;20704;-78
2023/01/10 10:48:30;;;;;;;5.10;1.30;;;;;;;-145.69;100.00;52674.13;5074437;28;20687;-78
2023/01/10 10:51:07;;;;;;;7.03;1.37;;;;;;;-145.69;100.00;52634.50;5074615;28;20199;-78
2023/01/10 10:53:35;;;;;;;6.20;1.60;;;;;;;-145.69;100.00;52606.78;5074731;28;20281;-78
2023/01/10 10:56:02;;;;;;;3.13;1.20;;;;;;;-145.69;100.00;52674.13;5071968;28;20202;-78
2023/01/10 10:58:31;;;;;;;8.67;1.30;;;;;;;-145.69;100.00;52638.47;5062516;28;20539;-78
2023/01/10 11:00:57;;;;;;;5.17;1.27;;;;;;;-145.69;100.00;52650.34;5074410;28;20203;-77
2023/01/10 11:03:32;;;;;;;2.47;0.70;;;;;;;-145.69;100.00;52656.28;5074212;28;20206;-78
2023/01/10 11:06:01;;;;;;;8.60;1.50;;;;;;;-145.69;100.00;52630.53;5074076;28;20237;-78
2023/01/10 11:08:30;;;;;;;3.00;1.20;;;;;;;-145.69;100.00;52616.69;5073813;28;20206;-78
2023/01/10 11:10:58;;;;;;;4.83;1.20;;;;;;;-145.69;100.00;52636.50;5073566;28;20206;-78
2023/01/10 11:13:39;;;;;;;6.72;1.73;;;;;;;-145.69;100.00;52626.59;5073216;28;20436;-77
2023/01/10 11:16:07;;;;;;;9.33;3.80;;;;;;;-145.69;100.00;52650.34;5073912;28;20688;-79
2023/01/10 11:18:37;;;;;;;2.63;1.50;;;;;;;-145.69;100.00;52630.53;5074111;28;20206;-78
2023/01/10 11:21:09;;;;;;;6.07;1.20;;;;;;;-145.69;100.00;52616.69;5073086;28;20272;-78
2023/01/10 11:23:43;;;;;;;9.00;1.40;;;;;;;-145.69;100.00;52634.50;5073616;28;20653;-78
2023/01/10 11:26:22;;;;;;;7.03;1.80;;;;;;;-145.69;100.00;52626.59;5073263;28;20226;-78